sensor_id;sensor_type;location;lat;lon;timestamp;P1;durP1;ratioP1;P2;durP2;ratioP2
27985;SDS011;15453;53.692;10.168;2023-02-01T00:01:38;24.95;;;5.35;;
27985;SDS011;15453;53.692;10.168;2023-02-01T00:04:04;22.90;;;4.10;;
27985;SDS011;15453;53.692;10.168;2023-02-01T00:06:29;23.40;;;3.95;;
27985;SDS011;15453;53.692;10.168;2023-02-01T00:08:55;31.05;;;5.10;;
27985;SDS011;15453;53.692;10.168;2023-02-01T00:11:21;27.58;;;4.90;;
27985;SDS011;15453;53.692;10.168;2023-02-01T00:13:47;31.08;;;5.13;;
27985;SDS011;15453;53.692;10.168;2023-02-01T00:16:13;26.02;;;4.93;;
27985;SDS011;15453;53.692;10.168;2023-02-01T00:18:43;32.53;;;4.72;;
27985;SDS011;15453;53.692;10.168;2023-02-01T00:21:10;21.23;;;4.15;;
27985;SDS011;15453;53.692;10.168;2023-02-01T00:23:36;21.52;;;4.10;;
27985;SDS011;15453;53.692;10.168;2023-02-01T00:26:03;21.63;;;3.83;;
27985;SDS011;15453;53.692;10.168;2023-02-01T00:28:30;26.35;;;4.30;;
27985;SDS011;15453;53.692;10.168;2023-02-01T00:30:57;31.70;;;5.30;;
27985;SDS011;15453;53.692;10.168;2023-02-01T00:33:23;25.95;;;4.72;;
27985;SDS011;15453;53.692;10.168;2023-02-01T00:35:48;29.60;;;5.75;;
27985;SDS011;15453;53.692;10.168;2023-02-01T00:38:14;25.70;;;5.18;;
27985;SDS011;15453;53.692;10.168;2023-02-01T00:40:39;32.38;;;5.03;;
27985;SDS011;15453;53.692;10.168;2023-02-01T00:43:04;32.05;;;6.20;;
27985;SDS011;15453;53.692;10.168;2023-02-01T00:45:29;44.25;;;6.80;;
27985;SDS011;15453;53.692;10.168;2023-02-01T00:47:54;37.28;;;5.68;;
27985;SDS011;15453;53.692;10.168;2023-02-01T00:50:20;30.80;;;5.47;;
27985;SDS011;15453;53.692;10.168;2023-02-01T00:52:45;30.25;;;6.00;;
27985;SDS011;15453;53.692;10.168;2023-02-01T00:55:10;42.95;;;8.18;;
27985;SDS011;15453;53.692;10.168;2023-02-01T00:57:35;41.78;;;6.72;;
27985;SDS011;15453;53.692;10.168;2023-02-01T01:00:01;31.98;;;6.00;;
27985;SDS011;15453;53.692;10.168;2023-02-01T01:02:26;38.15;;;5.88;;
27985;SDS011;15453;53.692;10.168;2023-02-01T01:04:52;36.88;;;7.30;;
27985;SDS011;15453;53.692;10.168;2023-02-01T01:07:17;32.55;;;5.50;;
27985;SDS011;15453;53.692;10.168;2023-02-01T01:09:42;41.92;;;6.40;;
27985;SDS011;15453;53.692;10.168;2023-02-01T01:12:08;29.35;;;5.72;;
27985;SDS011;15453;53.692;10.168;2023-02-01T01:14:33;35.13;;;6.03;;
27985;SDS011;15453;53.692;10.168;2023-02-01T01:16:58;39.63;;;6.15;;
27985;SDS011;15453;53.692;10.168;2023-02-01T01:19:23;33.45;;;5.57;;
27985;SDS011;15453;53.692;10.168;2023-02-01T01:21:49;34.22;;;6.13;;
27985;SDS011;15453;53.692;10.168;2023-02-01T01:24:14;40.85;;;6.75;;
27985;SDS011;15453;53.692;10.168;2023-02-01T01:26:39;35.83;;;6.38;;
27985;SDS011;15453;53.692;10.168;2023-02-01T01:29:04;33.65;;;6.45;;
27985;SDS011;15453;53.692;10.168;2023-02-01T01:31:30;29.73;;;5.68;;
27985;SDS011;15453;53.692;10.168;2023-02-01T01:33:56;42.80;;;6.85;;
27985;SDS011;15453;53.692;10.168;2023-02-01T01:36:23;33.33;;;5.88;;
27985;SDS011;15453;53.692;10.168;2023-02-01T01:38:49;33.88;;;6.22;;
27985;SDS011;15453;53.692;10.168;2023-02-01T01:41:17;34.47;;;6.43;;
27985;SDS011;15453;53.692;10.168;2023-02-01T01:43:48;41.45;;;7.18;;
27985;SDS011;15453;53.692;10.168;2023-02-01T01:46:29;33.28;;;6.97;;
27985;SDS011;15453;53.692;10.168;2023-02-01T01:48:59;51.25;;;7.07;;
27985;SDS011;15453;53.692;10.168;2023-02-01T01:51:31;33.95;;;5.85;;
27985;SDS011;15453;53.692;10.168;2023-02-01T01:56:42;27.48;;;5.60;;
27985;SDS011;15453;53.692;10.168;2023-02-01T01:59:10;39.33;;;7.57;;
27985;SDS011;15453;53.692;10.168;2023-02-01T02:01:36;32.80;;;5.45;;
27985;SDS011;15453;53.692;10.168;2023-02-01T02:04:01;33.10;;;7.07;;
27985;SDS011;15453;53.692;10.168;2023-02-01T02:09:05;42.83;;;7.82;;
27985;SDS011;15453;53.692;10.168;2023-02-01T02:11:30;39.28;;;6.85;;
27985;SDS011;15453;53.692;10.168;2023-02-01T02:13:55;31.58;;;6.13;;
27985;SDS011;15453;53.692;10.168;2023-02-01T02:21:56;29.92;;;6.93;;
27985;SDS011;15453;53.692;10.168;2023-02-01T02:33:36;31.17;;;6.05;;
27985;SDS011;15453;53.692;10.168;2023-02-01T02:35:51;28.23;;;5.70;;
27985;SDS011;15453;53.692;10.168;2023-02-01T02:38:33;35.58;;;6.82;;
27985;SDS011;15453;53.692;10.168;2023-02-01T02:41:13;34.60;;;6.63;;
27985;SDS011;15453;53.692;10.168;2023-02-01T02:44:05;36.47;;;6.85;;
27985;SDS011;15453;53.692;10.168;2023-02-01T02:46:55;40.15;;;6.15;;
27985;SDS011;15453;53.692;10.168;2023-02-01T02:53:06;47.88;;;7.18;;
27985;SDS011;15453;53.692;10.168;2023-02-01T02:55:51;40.22;;;6.35;;
27985;SDS011;15453;53.692;10.168;2023-02-01T02:58:17;47.08;;;7.57;;
27985;SDS011;15453;53.692;10.168;2023-02-01T03:01:03;31.58;;;6.18;;
27985;SDS011;15453;53.692;10.168;2023-02-01T03:03:47;35.15;;;5.65;;
27985;SDS011;15453;53.692;10.168;2023-02-01T03:06:32;35.53;;;5.95;;
27985;SDS011;15453;53.692;10.168;2023-02-01T03:08:58;28.25;;;5.55;;
27985;SDS011;15453;53.692;10.168;2023-02-01T03:11:28;22.88;;;5.10;;
27985;SDS011;15453;53.692;10.168;2023-02-01T03:14:15;27.30;;;4.85;;
27985;SDS011;15453;53.692;10.168;2023-02-01T03:19:17;23.65;;;4.65;;
27985;SDS011;15453;53.692;10.168;2023-02-01T03:24:22;25.15;;;4.45;;
27985;SDS011;15453;53.692;10.168;2023-02-01T03:26:58;26.83;;;4.88;;
27985;SDS011;15453;53.692;10.168;2023-02-01T03:29:30;27.02;;;4.85;;
27985;SDS011;15453;53.692;10.168;2023-02-01T03:32:04;27.40;;;4.88;;
27985;SDS011;15453;53.692;10.168;2023-02-01T03:34:30;22.75;;;4.25;;
27985;SDS011;15453;53.692;10.168;2023-02-01T03:37:00;21.80;;;4.30;;
27985;SDS011;15453;53.692;10.168;2023-02-01T03:39:32;23.40;;;4.13;;
27985;SDS011;15453;53.692;10.168;2023-02-01T03:42:02;19.92;;;3.58;;
27985;SDS011;15453;53.692;10.168;2023-02-01T03:44:49;21.95;;;3.80;;
27985;SDS011;15453;53.692;10.168;2023-02-01T03:47:23;27.05;;;4.38;;
27985;SDS011;15453;53.692;10.168;2023-02-01T03:49:52;26.43;;;4.70;;
27985;SDS011;15453;53.692;10.168;2023-02-01T03:52:24;28.27;;;5.10;;
27985;SDS011;15453;53.692;10.168;2023-02-01T03:54:53;23.85;;;4.45;;
27985;SDS011;15453;53.692;10.168;2023-02-01T03:57:22;29.80;;;5.18;;
27985;SDS011;15453;53.692;10.168;2023-02-01T03:59:51;26.70;;;4.63;;
27985;SDS011;15453;53.692;10.168;2023-02-01T04:02:17;29.38;;;5.15;;
27985;SDS011;15453;53.692;10.168;2023-02-01T04:04:42;23.33;;;3.92;;
27985;SDS011;15453;53.692;10.168;2023-02-01T04:07:07;22.63;;;3.85;;
27985;SDS011;15453;53.692;10.168;2023-02-01T04:09:32;20.42;;;3.60;;
27985;SDS011;15453;53.692;10.168;2023-02-01T04:11:58;23.85;;;4.57;;
27985;SDS011;15453;53.692;10.168;2023-02-01T04:14:23;18.20;;;3.42;;
27985;SDS011;15453;53.692;10.168;2023-02-01T04:16:48;20.95;;;4.03;;
27985;SDS011;15453;53.692;10.168;2023-02-01T04:19:13;25.48;;;4.93;;
27985;SDS011;15453;53.692;10.168;2023-02-01T04:21:39;19.65;;;4.20;;
27985;SDS011;15453;53.692;10.168;2023-02-01T04:24:04;14.73;;;3.67;;
27985;SDS011;15453;53.692;10.168;2023-02-01T04:26:30;17.58;;;2.75;;
27985;SDS011;15453;53.692;10.168;2023-02-01T04:28:55;14.38;;;2.65;;
27985;SDS011;15453;53.692;10.168;2023-02-01T04:31:20;19.05;;;3.70;;
27985;SDS011;15453;53.692;10.168;2023-02-01T04:33:50;16.20;;;3.33;;
27985;SDS011;15453;53.692;10.168;2023-02-01T04:36:19;18.88;;;2.95;;
27985;SDS011;15453;53.692;10.168;2023-02-01T04:38:46;18.83;;;2.95;;
27985;SDS011;15453;53.692;10.168;2023-02-01T04:41:12;14.73;;;2.92;;
27985;SDS011;15453;53.692;10.168;2023-02-01T04:43:37;16.73;;;3.63;;
27985;SDS011;15453;53.692;10.168;2023-02-01T04:46:02;12.25;;;2.97;;
27985;SDS011;15453;53.692;10.168;2023-02-01T04:48:27;16.00;;;2.65;;
27985;SDS011;15453;53.692;10.168;2023-02-01T04:50:53;10.90;;;2.72;;
27985;SDS011;15453;53.692;10.168;2023-02-01T04:53:18;11.50;;;2.50;;
27985;SDS011;15453;53.692;10.168;2023-02-01T04:55:43;13.52;;;2.80;;
27985;SDS011;15453;53.692;10.168;2023-02-01T04:58:09;11.63;;;2.67;;
27985;SDS011;15453;53.692;10.168;2023-02-01T05:00:34;19.08;;;4.07;;
27985;SDS011;15453;53.692;10.168;2023-02-01T05:03:00;17.65;;;3.50;;
27985;SDS011;15453;53.692;10.168;2023-02-01T05:05:26;11.63;;;3.15;;
27985;SDS011;15453;53.692;10.168;2023-02-01T05:07:52;11.07;;;2.42;;
27985;SDS011;15453;53.692;10.168;2023-02-01T05:10:17;12.90;;;2.65;;
27985;SDS011;15453;53.692;10.168;2023-02-01T05:12:43;14.27;;;2.47;;
27985;SDS011;15453;53.692;10.168;2023-02-01T05:15:28;15.32;;;2.90;;
27985;SDS011;15453;53.692;10.168;2023-02-01T05:17:53;12.15;;;2.30;;
27985;SDS011;15453;53.692;10.168;2023-02-01T05:20:19;12.80;;;2.85;;
27985;SDS011;15453;53.692;10.168;2023-02-01T05:22:44;13.05;;;2.75;;
27985;SDS011;15453;53.692;10.168;2023-02-01T05:25:09;7.32;;;2.17;;
27985;SDS011;15453;53.692;10.168;2023-02-01T05:27:34;9.63;;;2.00;;
27985;SDS011;15453;53.692;10.168;2023-02-01T05:30:00;12.85;;;2.50;;
27985;SDS011;15453;53.692;10.168;2023-02-01T05:32:25;13.85;;;2.10;;
27985;SDS011;15453;53.692;10.168;2023-02-01T05:34:50;6.50;;;2.15;;
27985;SDS011;15453;53.692;10.168;2023-02-01T05:37:15;9.25;;;2.05;;
27985;SDS011;15453;53.692;10.168;2023-02-01T05:39:41;9.20;;;1.80;;
27985;SDS011;15453;53.692;10.168;2023-02-01T05:42:06;7.85;;;2.08;;
27985;SDS011;15453;53.692;10.168;2023-02-01T05:44:31;10.00;;;1.80;;
27985;SDS011;15453;53.692;10.168;2023-02-01T05:46:56;5.95;;;1.50;;
27985;SDS011;15453;53.692;10.168;2023-02-01T05:49:22;5.78;;;1.05;;
27985;SDS011;15453;53.692;10.168;2023-02-01T05:51:47;6.53;;;1.73;;
27985;SDS011;15453;53.692;10.168;2023-02-01T05:54:12;5.20;;;1.08;;
27985;SDS011;15453;53.692;10.168;2023-02-01T05:56:38;6.10;;;1.27;;
27985;SDS011;15453;53.692;10.168;2023-02-01T05:59:03;3.85;;;0.88;;
27985;SDS011;15453;53.692;10.168;2023-02-01T06:01:28;3.65;;;0.80;;
27985;SDS011;15453;53.692;10.168;2023-02-01T06:03:53;6.60;;;1.05;;
27985;SDS011;15453;53.692;10.168;2023-02-01T06:06:19;3.00;;;1.00;;
27985;SDS011;15453;53.692;10.168;2023-02-01T06:08:44;2.45;;;0.80;;
27985;SDS011;15453;53.692;10.168;2023-02-01T06:11:09;3.95;;;0.90;;
27985;SDS011;15453;53.692;10.168;2023-02-01T06:13:35;4.60;;;1.45;;
27985;SDS011;15453;53.692;10.168;2023-02-01T06:16:01;2.25;;;0.93;;
27985;SDS011;15453;53.692;10.168;2023-02-01T06:18:28;5.35;;;1.30;;
27985;SDS011;15453;53.692;10.168;2023-02-01T06:20:55;6.63;;;1.17;;
27985;SDS011;15453;53.692;10.168;2023-02-01T06:23:22;3.45;;;0.90;;
27985;SDS011;15453;53.692;10.168;2023-02-01T06:25:48;4.38;;;1.42;;
27985;SDS011;15453;53.692;10.168;2023-02-01T06:28:35;5.55;;;1.48;;
27985;SDS011;15453;53.692;10.168;2023-02-01T06:31:06;9.10;;;1.13;;
27985;SDS011;15453;53.692;10.168;2023-02-01T06:33:32;8.60;;;1.65;;
27985;SDS011;15453;53.692;10.168;2023-02-01T06:35:59;3.30;;;1.10;;
27985;SDS011;15453;53.692;10.168;2023-02-01T06:38:25;5.32;;;1.30;;
27985;SDS011;15453;53.692;10.168;2023-02-01T06:40:54;5.72;;;1.50;;
27985;SDS011;15453;53.692;10.168;2023-02-01T06:43:21;8.00;;;1.65;;
27985;SDS011;15453;53.692;10.168;2023-02-01T06:45:46;6.05;;;1.70;;
27985;SDS011;15453;53.692;10.168;2023-02-01T06:48:12;6.75;;;1.52;;
27985;SDS011;15453;53.692;10.168;2023-02-01T06:50:37;8.63;;;1.80;;
27985;SDS011;15453;53.692;10.168;2023-02-01T06:53:02;8.20;;;1.52;;
27985;SDS011;15453;53.692;10.168;2023-02-01T06:55:27;11.73;;;1.60;;
27985;SDS011;15453;53.692;10.168;2023-02-01T06:57:53;7.40;;;1.98;;
27985;SDS011;15453;53.692;10.168;2023-02-01T07:00:19;11.65;;;1.90;;
27985;SDS011;15453;53.692;10.168;2023-02-01T07:02:45;9.45;;;2.17;;
27985;SDS011;15453;53.692;10.168;2023-02-01T07:05:10;7.80;;;1.65;;
27985;SDS011;15453;53.692;10.168;2023-02-01T07:07:35;10.48;;;2.00;;
27985;SDS011;15453;53.692;10.168;2023-02-01T07:10:01;8.32;;;2.13;;
27985;SDS011;15453;53.692;10.168;2023-02-01T07:12:26;8.82;;;1.90;;
27985;SDS011;15453;53.692;10.168;2023-02-01T07:14:51;14.73;;;2.40;;
27985;SDS011;15453;53.692;10.168;2023-02-01T07:17:16;12.85;;;3.05;;
27985;SDS011;15453;53.692;10.168;2023-02-01T07:19:42;10.75;;;2.65;;
27985;SDS011;15453;53.692;10.168;2023-02-01T07:22:07;14.80;;;2.83;;
27985;SDS011;15453;53.692;10.168;2023-02-01T07:24:33;20.33;;;3.22;;
27985;SDS011;15453;53.692;10.168;2023-02-01T07:26:59;18.02;;;3.47;;
27985;SDS011;15453;53.692;10.168;2023-02-01T07:29:24;18.90;;;3.15;;
27985;SDS011;15453;53.692;10.168;2023-02-01T07:31:49;13.80;;;2.58;;
27985;SDS011;15453;53.692;10.168;2023-02-01T07:34:14;18.27;;;3.05;;
27985;SDS011;15453;53.692;10.168;2023-02-01T07:36:40;22.33;;;4.57;;
27985;SDS011;15453;53.692;10.168;2023-02-01T07:39:05;21.10;;;4.22;;
27985;SDS011;15453;53.692;10.168;2023-02-01T07:41:30;22.05;;;4.38;;
27985;SDS011;15453;53.692;10.168;2023-02-01T07:43:56;26.58;;;4.88;;
27985;SDS011;15453;53.692;10.168;2023-02-01T07:46:21;29.58;;;4.85;;
27985;SDS011;15453;53.692;10.168;2023-02-01T07:48:47;26.92;;;4.03;;
27985;SDS011;15453;53.692;10.168;2023-02-01T07:51:13;28.48;;;5.47;;
27985;SDS011;15453;53.692;10.168;2023-02-01T07:53:40;32.70;;;6.00;;
27985;SDS011;15453;53.692;10.168;2023-02-01T07:56:39;35.95;;;6.20;;
27985;SDS011;15453;53.692;10.168;2023-02-01T07:58:57;27.15;;;4.75;;
27985;SDS011;15453;53.692;10.168;2023-02-01T08:01:25;26.35;;;4.82;;
27985;SDS011;15453;53.692;10.168;2023-02-01T08:03:52;34.63;;;4.30;;
27985;SDS011;15453;53.692;10.168;2023-02-01T08:06:19;36.33;;;5.57;;
27985;SDS011;15453;53.692;10.168;2023-02-01T08:08:45;31.10;;;7.03;;
27985;SDS011;15453;53.692;10.168;2023-02-01T08:11:11;35.15;;;5.68;;
27985;SDS011;15453;53.692;10.168;2023-02-01T08:13:38;31.02;;;5.72;;
27985;SDS011;15453;53.692;10.168;2023-02-01T08:16:04;30.90;;;5.22;;
27985;SDS011;15453;53.692;10.168;2023-02-01T08:18:31;35.70;;;6.07;;
27985;SDS011;15453;53.692;10.168;2023-02-01T08:21:01;27.08;;;4.63;;
27985;SDS011;15453;53.692;10.168;2023-02-01T08:23:28;29.20;;;4.47;;
27985;SDS011;15453;53.692;10.168;2023-02-01T08:25:53;31.60;;;4.80;;
27985;SDS011;15453;53.692;10.168;2023-02-01T08:28:19;39.67;;;6.68;;
27985;SDS011;15453;53.692;10.168;2023-02-01T08:30:44;25.55;;;4.75;;
27985;SDS011;15453;53.692;10.168;2023-02-01T08:33:10;28.90;;;4.85;;
27985;SDS011;15453;53.692;10.168;2023-02-01T08:35:36;31.30;;;4.93;;
27985;SDS011;15453;53.692;10.168;2023-02-01T08:38:02;29.90;;;5.05;;
27985;SDS011;15453;53.692;10.168;2023-02-01T08:40:28;27.33;;;4.93;;
27985;SDS011;15453;53.692;10.168;2023-02-01T08:42:53;31.05;;;5.60;;
27985;SDS011;15453;53.692;10.168;2023-02-01T08:45:22;28.02;;;5.25;;
27985;SDS011;15453;53.692;10.168;2023-02-01T08:47:50;34.03;;;6.15;;
27985;SDS011;15453;53.692;10.168;2023-02-01T08:50:16;26.50;;;4.35;;
27985;SDS011;15453;53.692;10.168;2023-02-01T08:52:41;21.90;;;4.65;;
27985;SDS011;15453;53.692;10.168;2023-02-01T08:55:07;21.05;;;4.13;;
27985;SDS011;15453;53.692;10.168;2023-02-01T08:57:33;29.20;;;5.25;;
27985;SDS011;15453;53.692;10.168;2023-02-01T08:59:59;26.27;;;4.07;;
27985;SDS011;15453;53.692;10.168;2023-02-01T09:02:25;27.33;;;3.97;;
27985;SDS011;15453;53.692;10.168;2023-02-01T09:04:50;23.52;;;4.95;;
27985;SDS011;15453;53.692;10.168;2023-02-01T09:07:15;22.10;;;4.80;;
27985;SDS011;15453;53.692;10.168;2023-02-01T09:09:42;19.70;;;3.63;;
27985;SDS011;15453;53.692;10.168;2023-02-01T09:12:09;25.95;;;4.13;;
27985;SDS011;15453;53.692;10.168;2023-02-01T09:14:34;18.67;;;4.55;;
27985;SDS011;15453;53.692;10.168;2023-02-01T09:16:59;20.20;;;4.10;;
27985;SDS011;15453;53.692;10.168;2023-02-01T09:19:24;22.35;;;3.55;;
27985;SDS011;15453;53.692;10.168;2023-02-01T09:21:50;21.83;;;3.97;;
27985;SDS011;15453;53.692;10.168;2023-02-01T09:24:15;23.95;;;3.88;;
27985;SDS011;15453;53.692;10.168;2023-02-01T09:26:40;17.65;;;3.30;;
27985;SDS011;15453;53.692;10.168;2023-02-01T09:29:06;21.67;;;3.85;;
27985;SDS011;15453;53.692;10.168;2023-02-01T09:31:37;21.55;;;3.80;;
27985;SDS011;15453;53.692;10.168;2023-02-01T09:34:04;19.08;;;4.10;;
27985;SDS011;15453;53.692;10.168;2023-02-01T09:36:29;26.40;;;4.55;;
27985;SDS011;15453;53.692;10.168;2023-02-01T09:38:55;23.98;;;4.30;;
27985;SDS011;15453;53.692;10.168;2023-02-01T09:41:32;31.17;;;4.97;;
27985;SDS011;15453;53.692;10.168;2023-02-01T09:44:08;31.00;;;5.15;;
27985;SDS011;15453;53.692;10.168;2023-02-01T09:46:44;26.75;;;5.13;;
27985;SDS011;15453;53.692;10.168;2023-02-01T09:49:15;29.25;;;4.45;;
27985;SDS011;15453;53.692;10.168;2023-02-01T09:51:46;31.08;;;5.57;;
27985;SDS011;15453;53.692;10.168;2023-02-01T09:56:56;30.08;;;4.45;;
27985;SDS011;15453;53.692;10.168;2023-02-01T09:59:40;31.30;;;4.97;;
27985;SDS011;15453;53.692;10.168;2023-02-01T10:02:12;32.20;;;5.00;;
27985;SDS011;15453;53.692;10.168;2023-02-01T10:04:40;28.55;;;4.85;;
27985;SDS011;15453;53.692;10.168;2023-02-01T10:10:12;40.85;;;5.85;;
27985;SDS011;15453;53.692;10.168;2023-02-01T10:12:48;34.17;;;5.20;;
27985;SDS011;15453;53.692;10.168;2023-02-01T10:18:15;36.08;;;5.70;;
27985;SDS011;15453;53.692;10.168;2023-02-01T10:20:52;25.35;;;4.65;;
27985;SDS011;15453;53.692;10.168;2023-02-01T10:28:50;34.83;;;6.07;;
27985;SDS011;15453;53.692;10.168;2023-02-01T10:31:18;28.65;;;5.25;;
27985;SDS011;15453;53.692;10.168;2023-02-01T10:33:47;31.52;;;6.22;;
27985;SDS011;15453;53.692;10.168;2023-02-01T10:36:36;29.38;;;4.93;;
27985;SDS011;15453;53.692;10.168;2023-02-01T10:39:06;30.80;;;6.50;;
27985;SDS011;15453;53.692;10.168;2023-02-01T10:41:35;24.60;;;5.28;;
27985;SDS011;15453;53.692;10.168;2023-02-01T10:44:05;29.55;;;5.55;;
27985;SDS011;15453;53.692;10.168;2023-02-01T10:46:36;25.52;;;4.30;;
27985;SDS011;15453;53.692;10.168;2023-02-01T10:49:02;23.27;;;4.68;;
27985;SDS011;15453;53.692;10.168;2023-02-01T10:51:30;23.42;;;4.82;;
27985;SDS011;15453;53.692;10.168;2023-02-01T10:54:00;30.27;;;5.88;;
27985;SDS011;15453;53.692;10.168;2023-02-01T10:56:30;30.80;;;4.85;;
27985;SDS011;15453;53.692;10.168;2023-02-01T10:59:00;35.38;;;5.90;;
27985;SDS011;15453;53.692;10.168;2023-02-01T11:01:42;31.30;;;5.03;;
27985;SDS011;15453;53.692;10.168;2023-02-01T11:04:12;23.52;;;5.05;;
27985;SDS011;15453;53.692;10.168;2023-02-01T11:06:41;22.55;;;4.32;;
27985;SDS011;15453;53.692;10.168;2023-02-01T11:09:10;33.72;;;7.40;;
27985;SDS011;15453;53.692;10.168;2023-02-01T11:16:47;30.00;;;4.85;;
27985;SDS011;15453;53.692;10.168;2023-02-01T11:19:15;31.20;;;5.35;;
27985;SDS011;15453;53.692;10.168;2023-02-01T11:21:41;27.92;;;3.90;;
27985;SDS011;15453;53.692;10.168;2023-02-01T11:24:14;18.92;;;4.25;;
27985;SDS011;15453;53.692;10.168;2023-02-01T11:26:47;25.17;;;4.60;;
27985;SDS011;15453;53.692;10.168;2023-02-01T11:29:13;22.40;;;4.90;;
27985;SDS011;15453;53.692;10.168;2023-02-01T11:31:42;35.65;;;5.45;;
27985;SDS011;15453;53.692;10.168;2023-02-01T11:34:12;30.92;;;5.07;;
27985;SDS011;15453;53.692;10.168;2023-02-01T11:36:39;24.17;;;4.85;;
27985;SDS011;15453;53.692;10.168;2023-02-01T11:41:56;26.15;;;4.70;;
27985;SDS011;15453;53.692;10.168;2023-02-01T11:44:40;27.60;;;4.93;;
27985;SDS011;15453;53.692;10.168;2023-02-01T11:47:25;32.03;;;5.25;;
27985;SDS011;15453;53.692;10.168;2023-02-01T11:50:08;27.42;;;4.60;;
27985;SDS011;15453;53.692;10.168;2023-02-01T11:55:27;19.95;;;4.32;;
27985;SDS011;15453;53.692;10.168;2023-02-01T12:03:56;29.38;;;4.50;;
27985;SDS011;15453;53.692;10.168;2023-02-01T12:06:52;22.02;;;3.90;;
27985;SDS011;15453;53.692;10.168;2023-02-01T12:17:46;19.33;;;3.60;;
27985;SDS011;15453;53.692;10.168;2023-02-01T12:23:40;18.77;;;3.72;;
27985;SDS011;15453;53.692;10.168;2023-02-01T12:37:03;17.02;;;2.78;;
27985;SDS011;15453;53.692;10.168;2023-02-01T12:39:42;16.33;;;3.17;;
27985;SDS011;15453;53.692;10.168;2023-02-01T12:42:18;12.88;;;2.60;;
27985;SDS011;15453;53.692;10.168;2023-02-01T12:44:55;12.32;;;2.10;;
27985;SDS011;15453;53.692;10.168;2023-02-01T12:47:38;6.90;;;1.65;;
27985;SDS011;15453;53.692;10.168;2023-02-01T12:50:13;6.50;;;1.60;;
27985;SDS011;15453;53.692;10.168;2023-02-01T12:53:04;6.80;;;1.40;;
27985;SDS011;15453;53.692;10.168;2023-02-01T12:55:35;6.97;;;1.85;;
27985;SDS011;15453;53.692;10.168;2023-02-01T12:58:14;4.40;;;0.98;;
27985;SDS011;15453;53.692;10.168;2023-02-01T13:00:43;7.13;;;1.38;;
27985;SDS011;15453;53.692;10.168;2023-02-01T13:05:57;3.80;;;0.80;;
27985;SDS011;15453;53.692;10.168;2023-02-01T13:08:39;1.75;;;0.65;;
27985;SDS011;15453;53.692;10.168;2023-02-01T13:11:24;3.47;;;0.90;;
27985;SDS011;15453;53.692;10.168;2023-02-01T13:22:05;4.30;;;1.13;;
27985;SDS011;15453;53.692;10.168;2023-02-01T13:24:44;6.03;;;1.40;;
27985;SDS011;15453;53.692;10.168;2023-02-01T13:27:13;3.90;;;1.00;;
27985;SDS011;15453;53.692;10.168;2023-02-01T13:29:44;5.15;;;1.20;;
27985;SDS011;15453;53.692;10.168;2023-02-01T13:43:52;5.63;;;0.85;;
27985;SDS011;15453;53.692;10.168;2023-02-01T13:46:21;6.20;;;1.20;;
27985;SDS011;15453;53.692;10.168;2023-02-01T13:48:49;8.32;;;1.15;;
27985;SDS011;15453;53.692;10.168;2023-02-01T13:51:18;5.85;;;1.02;;
27985;SDS011;15453;53.692;10.168;2023-02-01T13:53:56;5.38;;;1.48;;
27985;SDS011;15453;53.692;10.168;2023-02-01T13:56:22;7.63;;;1.45;;
27985;SDS011;15453;53.692;10.168;2023-02-01T13:58:49;6.45;;;1.55;;
27985;SDS011;15453;53.692;10.168;2023-02-01T14:03:54;7.68;;;1.33;;
27985;SDS011;15453;53.692;10.168;2023-02-01T14:11:36;12.05;;;2.00;;
27985;SDS011;15453;53.692;10.168;2023-02-01T14:14:45;6.65;;;1.30;;
27985;SDS011;15453;53.692;10.168;2023-02-01T14:19:24;7.32;;;1.58;;
27985;SDS011;15453;53.692;10.168;2023-02-01T14:21:56;9.10;;;2.00;;
27985;SDS011;15453;53.692;10.168;2023-02-01T14:24:27;8.00;;;2.13;;
27985;SDS011;15453;53.692;10.168;2023-02-01T14:26:55;8.38;;;1.67;;
27985;SDS011;15453;53.692;10.168;2023-02-01T14:34:53;6.45;;;1.30;;
27985;SDS011;15453;53.692;10.168;2023-02-01T14:47:43;10.13;;;1.80;;
27985;SDS011;15453;53.692;10.168;2023-02-01T14:52:45;8.98;;;1.80;;
27985;SDS011;15453;53.692;10.168;2023-02-01T14:55:19;8.20;;;1.40;;
27985;SDS011;15453;53.692;10.168;2023-02-01T14:57:50;5.55;;;1.65;;
27985;SDS011;15453;53.692;10.168;2023-02-01T15:00:23;6.60;;;1.63;;
27985;SDS011;15453;53.692;10.168;2023-02-01T15:02:52;11.25;;;2.35;;
27985;SDS011;15453;53.692;10.168;2023-02-01T15:05:31;11.13;;;2.25;;
27985;SDS011;15453;53.692;10.168;2023-02-01T15:08:00;7.85;;;1.73;;
27985;SDS011;15453;53.692;10.168;2023-02-01T15:10:32;11.13;;;1.83;;
27985;SDS011;15453;53.692;10.168;2023-02-01T15:13:04;10.82;;;2.08;;
27985;SDS011;15453;53.692;10.168;2023-02-01T15:15:29;11.10;;;1.80;;
27985;SDS011;15453;53.692;10.168;2023-02-01T15:17:58;15.65;;;2.83;;
27985;SDS011;15453;53.692;10.168;2023-02-01T15:20:31;11.93;;;2.90;;
27985;SDS011;15453;53.692;10.168;2023-02-01T15:23:01;14.27;;;2.83;;
27985;SDS011;15453;53.692;10.168;2023-02-01T15:25:30;11.65;;;3.30;;
27985;SDS011;15453;53.692;10.168;2023-02-01T15:27:57;10.48;;;1.70;;
27985;SDS011;15453;53.692;10.168;2023-02-01T15:30:26;11.88;;;2.63;;
27985;SDS011;15453;53.692;10.168;2023-02-01T15:35:47;21.15;;;3.28;;
27985;SDS011;15453;53.692;10.168;2023-02-01T15:40:59;16.90;;;3.25;;
27985;SDS011;15453;53.692;10.168;2023-02-01T15:43:27;18.38;;;3.28;;
27985;SDS011;15453;53.692;10.168;2023-02-01T15:46:02;16.05;;;3.00;;
27985;SDS011;15453;53.692;10.168;2023-02-01T15:51:02;16.08;;;2.63;;
27985;SDS011;15453;53.692;10.168;2023-02-01T15:53:28;24.92;;;4.25;;
27985;SDS011;15453;53.692;10.168;2023-02-01T15:55:56;24.17;;;3.55;;
27985;SDS011;15453;53.692;10.168;2023-02-01T15:58:24;17.55;;;3.92;;
27985;SDS011;15453;53.692;10.168;2023-02-01T16:00:51;17.80;;;3.30;;
27985;SDS011;15453;53.692;10.168;2023-02-01T16:03:28;18.08;;;3.78;;
27985;SDS011;15453;53.692;10.168;2023-02-01T16:06:04;22.20;;;3.50;;
27985;SDS011;15453;53.692;10.168;2023-02-01T16:08:32;22.73;;;3.63;;
27985;SDS011;15453;53.692;10.168;2023-02-01T16:13:34;21.45;;;3.25;;
27985;SDS011;15453;53.692;10.168;2023-02-01T16:15:59;25.10;;;4.35;;
27985;SDS011;15453;53.692;10.168;2023-02-01T16:18:25;22.98;;;4.07;;
27985;SDS011;15453;53.692;10.168;2023-02-01T16:20:50;25.85;;;4.22;;
27985;SDS011;15453;53.692;10.168;2023-02-01T16:23:15;21.80;;;5.00;;
27985;SDS011;15453;53.692;10.168;2023-02-01T16:25:41;21.92;;;3.80;;
27985;SDS011;15453;53.692;10.168;2023-02-01T16:28:06;17.50;;;3.83;;
27985;SDS011;15453;53.692;10.168;2023-02-01T16:30:31;25.38;;;4.78;;
27985;SDS011;15453;53.692;10.168;2023-02-01T16:33:00;22.02;;;3.58;;
27985;SDS011;15453;53.692;10.168;2023-02-01T16:38:00;20.55;;;3.65;;
27985;SDS011;15453;53.692;10.168;2023-02-01T16:40:26;33.25;;;5.63;;
27985;SDS011;15453;53.692;10.168;2023-02-01T16:42:51;38.70;;;5.88;;
27985;SDS011;15453;53.692;10.168;2023-02-01T16:45:19;41.05;;;5.70;;
27985;SDS011;15453;53.692;10.168;2023-02-01T16:47:46;33.10;;;5.78;;
27985;SDS011;15453;53.692;10.168;2023-02-01T16:50:16;35.58;;;6.38;;
27985;SDS011;15453;53.692;10.168;2023-02-01T16:52:43;41.85;;;6.10;;
27985;SDS011;15453;53.692;10.168;2023-02-01T16:55:12;35.33;;;5.22;;
27985;SDS011;15453;53.692;10.168;2023-02-01T16:57:39;37.88;;;6.18;;
27985;SDS011;15453;53.692;10.168;2023-02-01T17:00:05;44.95;;;5.72;;